Time;durP1;ratioP1;P1;durP2;ratioP2;P2;SDS_P1;SDS_P2;PMS_P1;PMS_P2;Temp;Humidity;BMP_temperature;BMP_pressure;BME280_temperature;BME280_humidity;BME280_pressure;Samples;Min_cycle;Max_cycle;Signal;HPM_P1;HPM_P2
2022/05/26 00:03:31;;;;;;;1.20;1.10;;;18.80;34.10;;;;;;10437824;28;20225;-72
2022/05/26 00:08:38;;;;;;;1.60;1.40;;;18.80;34.00;;;;;;10437281;28;20311;-72
2022/05/26 00:13:42;;;;;;;2.93;1.40;;;18.70;34.60;;;;;;10437271;28;20229;-72
2022/05/26 00:18:46;;;;;;;1.70;1.60;;;18.60;34.10;;;;;;10435959;28;20320;-72
2022/05/26 00:23:51;;;;;;;3.43;1.40;;;18.50;34.10;;;;;;10429494;28;20226;-72
2022/05/26 00:28:54;;;;;;;1.50;1.40;;;18.30;35.00;;;;;;10435504;28;20237;-72
2022/05/26 00:33:57;;;;;;;2.80;1.37;;;18.20;34.90;;;;;;10434866;28;20229;-71
2022/05/26 00:39:02;;;;;;;1.13;1.13;;;18.00;34.70;;;;;;10429231;22;20234;-75
2022/05/26 00:44:06;;;;;;;1.50;1.40;;;18.00;34.70;;;;;;10384811;28;20332;-76
2022/05/26 00:49:21;;;;;;;1.67;1.50;;;18.00;34.70;;;;;;10389369;28;20316;-75
2022/05/26 00:54:30;;;;;;;1.70;1.60;;;18.00;35.40;;;;;;10384114;28;20308;-76
2022/05/26 00:59:41;;;;;;;2.23;1.80;;;17.90;35.00;;;;;;10389474;28;20304;-76
2022/05/26 01:04:50;;;;;;;1.50;1.40;;;17.80;35.50;;;;;;10382013;28;20321;-75
2022/05/26 01:09:55;;;;;;;1.87;1.20;;;17.80;35.70;;;;;;10394754;28;20608;-76
2022/05/26 01:15:03;;;;;;;1.60;1.50;;;17.70;35.40;;;;;;10385532;28;20230;-76
2022/05/26 01:20:30;;;;;;;5.33;1.70;;;17.70;35.40;;;;;;10392847;28;20265;-75
2022/05/26 01:26:12;;;;;;;2.30;1.63;;;17.60;35.90;;;;;;10383407;28;20260;-75
2022/05/26 01:31:34;;;;;;;1.50;1.40;;;17.50;35.30;;;;;;10324723;28;20833;-75
2022/05/26 01:36:43;;;;;;;1.83;1.73;;;17.40;35.90;;;;;;10382547;28;20713;-75
2022/05/26 01:41:59;;;;;;;2.43;1.60;;;17.30;35.90;;;;;;10384570;28;20237;-75
2022/05/26 01:47:11;;;;;;;3.80;1.63;;;17.20;36.30;;;;;;10380418;28;20225;-75
2022/05/26 01:52:17;;;;;;;2.40;1.33;;;17.00;36.30;;;;;;10380349;28;20236;-75
2022/05/26 01:57:24;;;;;;;3.33;1.57;;;16.90;36.10;;;;;;10382490;28;20326;-75
2022/05/26 02:02:32;;;;;;;1.67;1.40;;;16.90;36.50;;;;;;10390450;28;20229;-76
2022/05/26 02:07:38;;;;;;;4.23;1.57;;;16.90;36.70;;;;;;10388547;28;20241;-76
2022/05/26 02:12:45;;;;;;;2.17;1.73;;;16.80;36.20;;;;;;10388275;28;20651;-76
2022/05/26 02:17:56;;;;;;;1.67;1.57;;;16.80;36.30;;;;;;10382498;28;20480;-76
2022/05/26 02:23:04;;;;;;;2.23;1.50;;;16.80;36.70;;;;;;10387099;28;20724;-76
2022/05/26 02:28:07;;;;;;;2.40;1.60;;;16.80;36.80;;;;;;10384757;28;20222;-76
2022/05/26 02:33:15;;;;;;;2.90;1.80;;;16.80;36.20;;;;;;10383112;28;20234;-76
2022/05/26 02:38:21;;;;;;;2.23;1.60;;;16.80;36.90;;;;;;10383177;28;20221;-75
2022/05/26 02:43:27;;;;;;;2.93;1.60;;;16.80;36.50;;;;;;10382876;28;20252;-76
2022/05/26 02:48:52;;;;;;;2.10;1.50;;;16.80;36.50;;;;;;10383252;28;20840;-76
2022/05/26 02:54:05;;;;;;;1.40;1.40;;;16.80;36.90;;;;;;10379651;28;20231;-76
2022/05/26 02:59:16;;;;;;;1.33;1.23;;;16.80;36.70;;;;;;10384312;28;20591;-76
2022/05/26 03:04:26;;;;;;;1.53;1.43;;;16.80;36.60;;;;;;10383436;28;20226;-76
2022/05/26 03:09:33;;;;;;;1.70;1.60;;;16.70;36.70;;;;;;10385956;28;20603;-76
2022/05/26 03:14:36;;;;;;;1.90;1.50;;;16.70;36.10;;;;;;10389552;28;20601;-76
2022/05/26 03:19:41;;;;;;;2.03;1.63;;;16.60;36.00;;;;;;10384093;28;20232;-76
2022/05/26 03:24:44;;;;;;;1.53;1.37;;;16.60;36.50;;;;;;10382694;28;20309;-76
2022/05/26 03:29:47;;;;;;;1.83;1.60;;;16.50;36.10;;;;;;10385264;28;20225;-76
2022/05/26 03:45:34;;;;;;;1.80;1.70;;;16.40;36.30;;;;;;10389744;28;20233;-76
2022/05/26 03:50:39;;;;;;;1.70;1.60;;;16.40;36.30;;;;;;10391535;28;20270;-76
2022/05/26 03:55:42;;;;;;;1.83;1.70;;;16.30;36.80;;;;;;10394920;28;20231;-77
2022/05/26 04:00:45;;;;;;;2.13;2.00;;;16.20;36.70;;;;;;10390268;28;20233;-76
2022/05/26 04:05:50;;;;;;;1.77;1.67;;;16.10;36.90;;;;;;10394721;28;20230;-76
2022/05/26 04:10:53;;;;;;;1.93;1.70;;;16.10;37.40;;;;;;10387014;28;20268;-76
2022/05/26 04:15:57;;;;;;;1.80;1.70;;;16.00;37.10;;;;;;10390206;28;20609;-76
2022/05/26 04:21:09;;;;;;;2.47;1.70;;;15.90;37.40;;;;;;10389555;28;20252;-76
2022/05/26 04:26:13;;;;;;;2.27;1.70;;;15.90;38.90;;;;;;10390350;28;20226;-77
2022/05/26 04:31:16;;;;;;;1.70;1.60;;;15.80;37.80;;;;;;10391784;28;20761;-77
2022/05/26 04:36:21;;;;;;;2.13;1.77;;;15.80;37.90;;;;;;10385883;28;20256;-76
2022/05/26 04:41:24;;;;;;;2.10;1.87;;;15.80;38.60;;;;;;10389514;28;20714;-76
2022/05/26 04:46:27;;;;;;;2.40;1.80;;;15.90;38.20;;;;;;10380718;28;20226;-76
2022/05/26 04:51:34;;;;;;;2.07;1.60;;;15.90;38.40;;;;;;10386051;28;20234;-75
2022/05/26 04:56:37;;;;;;;2.40;1.80;;;15.90;39.10;;;;;;10386146;28;20345;-76
2022/05/26 05:01:41;;;;;;;1.70;1.60;;;16.00;38.80;;;;;;10384010;28;20257;-76
2022/05/26 05:06:45;;;;;;;1.80;1.70;;;16.10;39.00;;;;;;10378656;28;20237;-76
2022/05/26 05:11:49;;;;;;;3.60;1.67;;;16.20;39.50;;;;;;10384726;28;20226;-76
2022/05/26 05:16:52;;;;;;;2.30;1.60;;;16.20;39.20;;;;;;10382008;28;20306;-75
2022/05/26 05:22:00;;;;;;;2.57;1.77;;;16.30;39.00;;;;;;10383444;28;20373;-76
2022/05/26 05:27:11;;;;;;;1.73;1.60;;;16.40;39.90;;;;;;10382756;28;20229;-76
2022/05/26 05:32:19;;;;;;;2.10;1.90;;;16.50;39.80;;;;;;10384734;28;20222;-77
2022/05/26 05:37:23;;;;;;;1.90;1.70;;;16.60;40.00;;;;;;10386086;28;20238;-77
2022/05/26 05:42:27;;;;;;;4.20;1.60;;;16.70;39.80;;;;;;10385069;28;20225;-77
2022/05/26 05:47:30;;;;;;;1.50;1.40;;;16.80;40.40;;;;;;10386251;28;20249;-77
2022/05/26 05:52:36;;;;;;;1.30;1.20;;;17.00;39.80;;;;;;10388534;28;20225;-77
2022/05/26 05:57:39;;;;;;;3.63;1.50;;;17.10;40.10;;;;;;10380063;28;20613;-77
2022/05/26 06:02:43;;;;;;;1.50;1.30;;;17.30;39.80;;;;;;10379279;28;20233;-77
2022/05/26 06:07:47;;;;;;;1.93;1.10;;;17.50;39.80;;;;;;10392011;28;20236;-77
2022/05/26 06:12:50;;;;;;;2.13;0.90;;;17.70;39.40;;;;;;10393314;28;20226;-77
2022/05/26 06:17:54;;;;;;;1.33;0.77;;;17.90;38.60;;;;;;10385689;28;20230;-77
2022/05/26 06:22:59;;;;;;;1.20;0.83;;;18.10;38.40;;;;;;10387730;28;20781;-77
2022/05/26 06:38:46;;;;;;;1.03;0.90;;;18.90;37.40;;;;;;10381707;28;20232;-76
2022/05/26 06:43:49;;;;;;;1.07;0.90;;;19.00;36.80;;;;;;10382751;28;20244;-77
2022/05/26 06:48:53;;;;;;;1.30;1.03;;;19.10;36.80;;;;;;10394696;28;20228;-77
2022/05/26 06:53:58;;;;;;;1.63;1.00;;;19.30;36.10;;;;;;10390559;28;20698;-77
2022/05/26 06:59:01;;;;;;;1.67;1.10;;;19.40;36.00;;;;;;10387612;28;20221;-76
2022/05/26 07:04:04;;;;;;;1.40;1.00;;;19.50;36.10;;;;;;10396685;28;20229;-77
2022/05/26 07:09:09;;;;;;;1.50;0.90;;;19.60;36.20;;;;;;10392013;28;20229;-76
2022/05/26 07:14:12;;;;;;;0.77;0.77;;;19.80;36.30;;;;;;10395600;28;20236;-77
2022/05/26 07:19:18;;;;;;;2.20;0.93;;;19.90;36.40;;;;;;10394660;28;20218;-76
2022/05/26 07:24:24;;;;;;;0.97;0.80;;;20.10;35.90;;;;;;10392079;28;20233;-76
2022/05/26 07:29:28;;;;;;;1.40;0.83;;;20.20;35.30;;;;;;10393131;28;20236;-76
2022/05/26 07:34:31;;;;;;;0.70;0.70;;;20.40;35.20;;;;;;10395764;28;21063;-76
2022/05/26 07:44:59;;;;;;;2.33;0.90;;;20.70;33.70;;;;;;10401453;28;20240;-75
2022/05/26 07:50:03;;;;;;;0.80;0.80;;;20.80;33.30;;;;;;10395907;28;20226;-75
2022/05/26 07:55:09;;;;;;;0.97;0.77;;;20.90;33.30;;;;;;10402496;28;20300;-78
2022/05/26 08:00:14;;;;;;;1.63;0.73;;;21.00;32.80;;;;;;10396172;28;20229;-77
2022/05/26 08:05:18;;;;;;;0.90;0.80;;;21.10;33.80;;;;;;10397871;28;20228;-77
2022/05/26 08:10:23;;;;;;;0.93;0.90;;;21.20;33.10;;;;;;10391106;28;20222;-76
2022/05/26 08:15:26;;;;;;;1.10;0.70;;;21.40;33.00;;;;;;10386713;28;20748;-76
2022/05/26 08:20:29;;;;;;;2.23;0.87;;;21.50;32.60;;;;;;10389748;28;20240;-77
2022/05/26 08:25:34;;;;;;;0.60;0.60;;;21.60;32.50;;;;;;10385962;28;20644;-77
2022/05/26 08:30:39;;;;;;;2.30;0.87;;;21.90;31.80;;;;;;10394332;28;20242;-76
2022/05/26 08:35:42;;;;;;;1.37;1.00;;;22.00;32.50;;;;;;10388997;28;20304;-75
2022/05/26 08:40:51;;;;;;;1.23;0.90;;;22.20;33.10;;;;;;10365562;28;20643;-77
2022/05/26 08:45:55;;;;;;;2.33;0.73;;;22.20;30.80;;;;;;10372488;28;20244;-76
2022/05/26 08:50:58;;;;;;;1.43;0.87;;;22.40;31.50;;;;;;10360211;28;20237;-74
2022/05/26 08:56:04;;;;;;;0.77;0.60;;;22.60;31.20;;;;;;10363475;28;20225;-73
2022/05/26 09:01:10;;;;;;;1.07;0.70;;;22.70;30.70;;;;;;10365083;28;20224;-74
2022/05/26 09:06:16;;;;;;;0.73;0.60;;;22.90;30.00;;;;;;10362509;28;20233;-74
2022/05/26 09:16:57;;;;;;;1.07;0.90;;;22.90;29.30;;;;;;10330070;28;20972;-74
2022/05/26 09:22:01;;;;;;;1.63;0.60;;;22.90;29.10;;;;;;10372567;28;20342;-76
2022/05/26 09:27:24;;;;;;;0.80;0.80;;;22.90;29.50;;;;;;10365599;28;20233;-76
2022/05/26 09:32:31;;;;;;;0.87;0.80;;;22.90;28.60;;;;;;10367247;28;20314;-76
2022/05/26 09:37:40;;;;;;;1.13;0.80;;;22.90;29.50;;;;;;10368099;28;20222;-76
2022/05/26 09:42:45;;;;;;;1.23;0.90;;;23.00;28.90;;;;;;10378231;28;20230;-76
2022/05/26 09:47:54;;;;;;;1.30;0.70;;;23.10;29.00;;;;;;10365245;28;20221;-77
2022/05/26 09:52:59;;;;;;;1.27;0.67;;;23.20;28.10;;;;;;10385169;28;20218;-77
2022/05/26 09:58:11;;;;;;;1.17;0.80;;;23.30;29.20;;;;;;10384611;28;20221;-78
2022/05/26 10:03:25;;;;;;;0.87;0.63;;;23.50;26.90;;;;;;10396351;28;20229;-78
2022/05/26 10:08:35;;;;;;;2.50;0.90;;;23.60;25.90;;;;;;10388477;28;20233;-77
2022/05/26 10:14:01;;;;;;;0.60;0.60;;;23.60;27.80;;;;;;10380998;28;20245;-77
2022/05/26 10:19:17;;;;;;;0.97;0.70;;;23.60;27.80;;;;;;10375824;28;20226;-77
2022/05/26 10:24:37;;;;;;;4.90;0.73;;;23.80;27.90;;;;;;10388383;28;20862;-77
2022/05/26 10:30:16;;;;;;;0.70;0.70;;;23.80;25.60;;;;;;10380695;28;20245;-78
2022/05/26 10:35:26;;;;;;;0.93;0.93;;;23.80;26.00;;;;;;10370993;28;20322;-77
2022/05/26 10:40:39;;;;;;;3.80;0.70;;;23.70;26.40;;;;;;10377631;28;20792;-77
2022/05/26 10:45:48;;;;;;;0.50;0.50;;;23.60;26.50;;;;;;10380975;28;20232;-77
2022/05/26 10:50:55;;;;;;;1.03;0.70;;;23.60;27.00;;;;;;10374799;28;20238;-77
2022/05/26 10:56:14;;;;;;;0.87;0.70;;;23.60;27.20;;;;;;10376676;28;20580;-77
2022/05/26 11:01:33;;;;;;;1.73;0.70;;;23.70;27.80;;;;;;10381417;28;20677;-77
2022/05/26 11:06:39;;;;;;;1.33;0.70;;;23.80;27.20;;;;;;10374468;28;20230;-77
2022/05/26 11:11:46;;;;;;;1.50;0.77;;;24.10;28.10;;;;;;10373376;28;20653;-77
2022/05/26 11:22:16;;;;;;;0.90;0.90;;;24.10;26.60;;;;;;10380190;28;20226;-77
2022/05/26 11:27:26;;;;;;;0.77;0.60;;;23.90;27.40;;;;;;10382604;28;20234;-78
2022/05/26 11:37:58;;;;;;;0.60;0.60;;;23.60;26.90;;;;;;10379726;28;20226;-77
2022/05/26 11:43:04;;;;;;;0.80;0.80;;;23.50;26.90;;;;;;10379570;28;20229;-77
2022/05/26 11:48:41;;;;;;;2.00;0.77;;;23.30;27.50;;;;;;10387169;28;20698;-77
2022/05/26 11:53:45;;;;;;;0.93;0.87;;;23.20;27.20;;;;;;10384267;28;20230;-77
2022/05/26 11:59:19;;;;;;;1.47;0.83;;;23.10;27.40;;;;;;10383359;28;20313;-77
2022/05/26 12:04:30;;;;;;;0.70;0.70;;;23.00;27.30;;;;;;10387331;28;20455;-77
2022/05/26 12:09:38;;;;;;;1.33;0.70;;;23.00;27.10;;;;;;10385806;28;20222;-77
2022/05/26 12:14:45;;;;;;;1.17;0.80;;;23.00;27.40;;;;;;10384447;28;20314;-77
2022/05/26 12:19:51;;;;;;;1.07;0.90;;;23.00;27.50;;;;;;10380749;28;20248;-76
2022/05/26 12:25:21;;;;;;;1.43;0.93;;;22.90;27.30;;;;;;10378384;28;20229;-76
2022/05/26 12:31:13;;;;;;;0.80;0.80;;;23.00;27.30;;;;;;10383557;28;21065;-76
2022/05/26 12:36:24;;;;;;;0.80;0.60;;;23.00;27.30;;;;;;10358434;28;20934;-77
2022/05/26 12:41:39;;;;;;;1.47;0.80;;;23.00;27.30;;;;;;10389851;28;20232;-75
2022/05/26 12:47:17;;;;;;;0.70;0.70;;;23.00;27.40;;;;;;10376441;28;20233;-76
2022/05/26 12:52:33;;;;;;;1.87;0.83;;;23.10;27.40;;;;;;10386432;28;20240;-75
2022/05/26 12:57:41;;;;;;;0.93;0.90;;;23.20;27.50;;;;;;10377258;28;20229;-77
2022/05/26 13:02:49;;;;;;;0.70;0.70;;;23.20;27.50;;;;;;10386754;28;20337;-76
2022/05/26 13:07:55;;;;;;;0.70;0.70;;;23.20;27.50;;;;;;10382468;28;20237;-76
2022/05/26 13:13:00;;;;;;;1.27;0.70;;;23.30;27.50;;;;;;10380721;28;20241;-76
2022/05/26 13:18:03;;;;;;;1.60;0.70;;;23.30;27.60;;;;;;10383666;28;20222;-76
2022/05/26 13:23:10;;;;;;;0.70;0.70;;;23.40;27.60;;;;;;10381021;28;20603;-75
2022/05/26 13:28:13;;;;;;;0.90;0.70;;;23.50;26.70;;;;;;10379584;28;20230;-74
2022/05/26 13:33:22;;;;;;;1.77;0.83;;;23.50;27.10;;;;;;10374810;28;20717;-74
2022/05/26 13:38:32;;;;;;;0.87;0.80;;;23.40;26.70;;;;;;10377924;28;20245;-75
2022/05/26 13:43:39;;;;;;;0.80;0.80;;;23.30;26.30;;;;;;10376700;28;20317;-75
2022/05/26 13:48:44;;;;;;;2.50;0.70;;;23.30;26.90;;;;;;10378280;28;20260;-75
2022/05/26 13:53:51;;;;;;;1.20;0.70;;;23.30;27.40;;;;;;10374010;28;20317;-75
2022/05/26 13:58:59;;;;;;;1.23;1.00;;;23.40;27.10;;;;;;10373462;28;20236;-75
2022/05/26 14:04:02;;;;;;;0.80;0.70;;;23.40;26.80;;;;;;10377108;28;20283;-75
2022/05/26 14:09:28;;;;;;;0.83;0.83;;;23.40;27.10;;;;;;10378901;28;20603;-75
2022/05/26 14:14:40;;;;;;;0.87;0.80;;;23.40;26.90;;;;;;10378385;28;20221;-76
2022/05/26 14:19:48;;;;;;;1.63;0.73;;;23.40;27.80;;;;;;10376975;28;20333;-75
2022/05/26 14:24:54;;;;;;;1.40;0.60;;;23.50;26.60;;;;;;10377526;28;20883;-76
2022/05/26 14:29:59;;;;;;;0.90;0.90;;;23.50;26.90;;;;;;10376431;28;20322;-75
2022/05/26 14:35:13;;;;;;;2.00;1.00;;;23.50;27.10;;;;;;10377997;28;20225;-75
2022/05/26 14:40:18;;;;;;;0.70;0.67;;;23.60;26.90;;;;;;10378289;28;20222;-75
2022/05/26 14:45:21;;;;;;;1.27;0.90;;;23.70;26.40;;;;;;10377359;28;20233;-76
2022/05/26 14:50:24;;;;;;;0.97;0.80;;;23.70;26.50;;;;;;10377701;28;20238;-75
2022/05/26 14:55:33;;;;;;;0.70;0.70;;;23.80;26.70;;;;;;10379798;28;20608;-75
2022/05/26 15:00:38;;;;;;;0.93;0.87;;;23.80;26.40;;;;;;10374142;28;20236;-75
2022/05/26 15:05:43;;;;;;;1.03;1.00;;;23.90;26.20;;;;;;10373619;28;20237;-75
2022/05/26 15:10:48;;;;;;;0.90;0.90;;;23.90;26.10;;;;;;10374212;28;20345;-75
2022/05/26 15:15:51;;;;;;;0.70;0.70;;;23.90;26.40;;;;;;10376628;28;20217;-75
2022/05/26 15:20:55;;;;;;;0.83;0.83;;;24.00;26.20;;;;;;10375422;28;20625;-75
2022/05/26 15:26:11;;;;;;;1.33;0.80;;;24.00;25.90;;;;;;10345093;28;20245;-75
2022/05/26 15:31:15;;;;;;;0.93;0.80;;;23.90;25.70;;;;;;10339588;28;20227;-76
2022/05/26 15:36:22;;;;;;;1.00;1.00;;;23.90;26.00;;;;;;10339196;28;20242;-75
2022/05/26 15:41:29;;;;;;;0.80;0.80;;;23.80;25.60;;;;;;10344694;28;20226;-76
2022/05/26 15:46:36;;;;;;;0.80;0.80;;;23.80;25.80;;;;;;10335313;28;20227;-76
2022/05/26 15:51:40;;;;;;;1.53;0.90;;;23.80;25.80;;;;;;10341069;28;20666;-76
2022/05/26 15:56:45;;;;;;;0.80;0.80;;;23.90;26.00;;;;;;10340193;28;20226;-75
2022/05/26 16:01:49;;;;;;;0.60;0.60;;;23.90;25.60;;;;;;10345413;28;20360;-75
2022/05/26 16:06:53;;;;;;;2.13;0.60;;;23.80;25.70;;;;;;10337703;28;20585;-75
2022/05/26 16:11:58;;;;;;;1.00;0.90;;;23.80;25.90;;;;;;10340233;28;20244;-76
2022/05/26 16:17:01;;;;;;;0.77;0.77;;;23.80;26.10;;;;;;10337962;28;20238;-75
2022/05/26 16:22:05;;;;;;;0.93;0.90;;;23.80;26.10;;;;;;10332006;28;20257;-75
2022/05/26 16:27:09;;;;;;;1.03;0.60;;;23.80;26.10;;;;;;10341222;28;20234;-75
2022/05/26 16:32:13;;;;;;;1.00;0.80;;;23.80;25.50;;;;;;10339404;28;20226;-75
2022/05/26 16:37:16;;;;;;;0.80;0.80;;;23.90;25.90;;;;;;10337421;28;20226;-75
2022/05/26 16:42:21;;;;;;;1.33;0.90;;;23.90;25.70;;;;;;10344025;28;20241;-74
2022/05/26 16:47:24;;;;;;;0.70;0.70;;;23.90;25.80;;;;;;10339008;28;20738;-74
2022/05/26 16:52:27;;;;;;;1.57;0.83;;;23.90;25.60;;;;;;10334969;28;20235;-75
2022/05/26 16:57:32;;;;;;;1.00;1.00;;;23.90;25.60;;;;;;10336863;28;20234;-75
2022/05/26 17:02:36;;;;;;;0.80;0.80;;;23.80;25.50;;;;;;10337495;28;20741;-75
2022/05/26 17:07:40;;;;;;;1.17;1.07;;;23.70;25.70;;;;;;10335087;28;20245;-75
2022/05/26 17:23:27;;;;;;;0.80;0.80;;;23.70;25.90;;;;;;10422911;28;20746;-75
2022/05/26 17:28:32;;;;;;;0.80;0.80;;;23.60;26.00;;;;;;10420790;28;20236;-74
2022/05/26 17:33:36;;;;;;;1.90;0.90;;;23.60;26.50;;;;;;10416145;28;20220;-75
2022/05/26 17:38:41;;;;;;;1.10;1.00;;;23.60;26.10;;;;;;10416943;28;20217;-75
2022/05/26 17:43:46;;;;;;;0.70;0.70;;;23.60;26.00;;;;;;10423728;28;20843;-78
2022/05/26 17:48:49;;;;;;;1.00;0.80;;;23.60;26.00;;;;;;10418139;28;20740;-76
2022/05/26 17:53:53;;;;;;;0.60;0.60;;;23.60;26.00;;;;;;10429812;28;20232;-76
2022/05/26 17:58:58;;;;;;;2.63;1.03;;;23.60;26.10;;;;;;10428270;28;20229;-76
2022/05/26 18:04:01;;;;;;;0.73;0.73;;;23.70;26.10;;;;;;10423812;28;20240;-76
2022/05/26 18:09:04;;;;;;;1.07;0.90;;;23.70;26.20;;;;;;10424508;28;20221;-76
2022/05/26 18:14:09;;;;;;;1.37;1.00;;;23.70;26.00;;;;;;10422413;28;20232;-76
2022/05/26 18:19:16;;;;;;;1.47;1.07;;;23.70;26.00;;;;;;10422990;28;20236;-76
2022/05/26 18:24:19;;;;;;;0.87;0.83;;;23.60;26.00;;;;;;10423644;28;20225;-76
2022/05/26 18:29:24;;;;;;;0.90;0.90;;;23.50;26.30;;;;;;10423029;28;20603;-76
2022/05/26 18:34:29;;;;;;;1.00;0.97;;;23.40;26.50;;;;;;10418475;28;20237;-76
2022/05/26 18:39:34;;;;;;;1.10;1.00;;;23.30;26.40;;;;;;10424015;28;20232;-76
2022/05/26 18:44:38;;;;;;;1.00;1.00;;;23.30;26.70;;;;;;10422586;28;20591;-76
2022/05/26 18:49:43;;;;;;;0.93;0.90;;;23.30;26.60;;;;;;10418232;28;20229;-75
2022/05/26 18:54:48;;;;;;;0.70;0.70;;;23.20;26.80;;;;;;10439051;28;20253;-76
2022/05/26 18:59:52;;;;;;;0.87;0.80;;;23.20;27.00;;;;;;10444934;28;20233;-75
2022/05/26 19:05:16;;;;;;;1.70;1.30;;;23.10;26.80;;;;;;10432731;28;20237;-75
2022/05/26 19:10:19;;;;;;;4.73;1.30;;;23.00;27.00;;;;;;10438965;28;20221;-74
2022/05/26 19:15:25;;;;;;;1.03;1.00;;;22.90;26.90;;;;;;10449677;28;20225;-77
2022/05/26 19:20:28;;;;;;;1.00;1.00;;;22.80;27.20;;;;;;10443006;28;20228;-76
2022/05/26 19:25:31;;;;;;;1.07;0.90;;;22.70;27.10;;;;;;10442553;28;20213;-77
2022/05/26 19:30:36;;;;;;;1.63;0.90;;;22.60;27.60;;;;;;10441162;28;20233;-76
2022/05/26 19:35:39;;;;;;;0.90;0.90;;;22.40;26.90;;;;;;10436642;28;20300;-75
2022/05/26 19:40:44;;;;;;;0.70;0.70;;;22.30;27.00;;;;;;10433340;28;20233;-76
2022/05/26 19:45:51;;;;;;;1.20;1.10;;;22.20;27.10;;;;;;10434891;28;20602;-77
2022/05/26 19:50:55;;;;;;;1.10;0.80;;;22.10;27.50;;;;;;10441543;28;20568;-76
2022/05/26 19:55:58;;;;;;;1.13;1.07;;;22.10;27.40;;;;;;10434566;28;20225;-76
2022/05/26 20:01:03;;;;;;;0.83;0.83;;;22.00;27.70;;;;;;10427322;28;20229;-75
2022/05/26 20:06:06;;;;;;;1.03;1.03;;;21.90;27.80;;;;;;10437417;28;20229;-75
2022/05/26 20:11:10;;;;;;;1.37;0.70;;;21.80;27.90;;;;;;10436909;28;20233;-75
2022/05/26 20:16:18;;;;;;;1.03;1.03;;;21.70;27.80;;;;;;10436315;28;20316;-75
2022/05/26 20:21:22;;;;;;;0.90;0.90;;;21.60;28.10;;;;;;10433307;28;20244;-75
2022/05/26 20:26:25;;;;;;;0.90;0.90;;;21.50;27.90;;;;;;10432134;28;20758;-74
2022/05/26 20:31:31;;;;;;;1.10;1.00;;;21.30;27.90;;;;;;10437728;28;20640;-75
2022/05/26 20:36:37;;;;;;;1.33;1.20;;;21.20;28.30;;;;;;10434990;28;20780;-74
2022/05/26 20:41:40;;;;;;;2.50;1.10;;;21.00;28.20;;;;;;10439262;28;20312;-76
2022/05/26 20:46:45;;;;;;;1.13;1.10;;;20.90;28.30;;;;;;10432196;28;20233;-75
2022/05/26 20:51:48;;;;;;;5.93;3.13;;;20.70;28.50;;;;;;10433392;28;20274;-75
2022/05/26 20:56:52;;;;;;;2.83;2.27;;;20.40;28.40;;;;;;10433191;28;20225;-75
2022/05/26 21:01:57;;;;;;;1.97;1.40;;;20.20;28.60;;;;;;10429884;28;20311;-75
2022/05/26 21:07:00;;;;;;;1.50;1.40;;;20.00;29.10;;;;;;10435927;28;20234;-76
2022/05/26 21:12:04;;;;;;;1.93;1.30;;;19.80;28.90;;;;;;10427377;28;20541;-75
2022/05/26 21:17:10;;;;;;;1.60;1.30;;;19.60;29.30;;;;;;10426836;28;20232;-75
2022/05/26 21:22:15;;;;;;;1.83;1.30;;;19.50;29.80;;;;;;10432138;28;20225;-75
2022/05/26 21:27:22;;;;;;;1.50;1.23;;;19.50;29.80;;;;;;10427932;28;20316;-75
2022/05/26 21:32:27;;;;;;;1.23;1.17;;;19.50;30.00;;;;;;10434265;28;20237;-76
2022/05/26 21:37:30;;;;;;;1.67;1.20;;;19.50;30.20;;;;;;10428508;28;20245;-75
2022/05/26 21:42:34;;;;;;;1.37;1.10;;;19.40;29.80;;;;;;10434897;28;20239;-75
2022/05/26 21:47:38;;;;;;;1.63;1.30;;;19.40;30.00;;;;;;10432996;28;20239;-76
2022/05/26 21:52:43;;;;;;;1.33;1.23;;;19.40;30.30;;;;;;10428921;28;20345;-75
2022/05/26 21:57:46;;;;;;;1.27;1.20;;;19.40;30.00;;;;;;10433089;28;20233;-76
2022/05/26 22:02:51;;;;;;;1.43;1.33;;;19.30;30.00;;;;;;10426240;28;20231;-75
2022/05/26 22:13:17;;;;;;;1.23;1.13;;;19.30;30.10;;;;;;10429086;28;20255;-75
2022/05/26 22:18:22;;;;;;;1.90;1.27;;;19.30;30.30;;;;;;10426410;28;20593;-75
2022/05/26 22:23:25;;;;;;;1.37;1.23;;;19.20;30.60;;;;;;10428461;28;20228;-75
2022/05/26 22:28:29;;;;;;;1.90;1.60;;;19.10;30.20;;;;;;10426363;28;20236;-75
2022/05/26 22:33:34;;;;;;;3.17;1.30;;;19.10;30.30;;;;;;10422032;28;20232;-74
2022/05/26 22:38:37;;;;;;;1.70;1.50;;;19.00;30.80;;;;;;10429591;28;20602;-75
2022/05/26 22:43:41;;;;;;;1.30;1.20;;;18.90;30.60;;;;;;10427452;28;20746;-75
2022/05/26 22:48:46;;;;;;;1.60;1.50;;;18.90;30.80;;;;;;10427967;28;20228;-75
2022/05/26 22:53:50;;;;;;;1.07;1.07;;;18.80;31.00;;;;;;10428480;28;20225;-75
2022/05/26 22:58:53;;;;;;;1.50;1.40;;;18.80;30.80;;;;;;10428818;28;20228;-75
2022/05/26 23:03:58;;;;;;;1.53;1.30;;;18.80;30.90;;;;;;10429608;28;20229;-76
2022/05/26 23:09:01;;;;;;;2.03;1.37;;;18.70;31.20;;;;;;10423353;28;20290;-75
2022/05/26 23:14:05;;;;;;;1.20;1.20;;;18.70;31.10;;;;;;10425849;28;20252;-75
2022/05/26 23:19:12;;;;;;;1.43;1.33;;;18.60;31.00;;;;;;10428939;28;20231;-75
2022/05/26 23:24:15;;;;;;;2.10;1.30;;;18.60;31.50;;;;;;10429431;28;20279;-75
2022/05/26 23:29:18;;;;;;;1.70;1.20;;;18.50;31.20;;;;;;10425175;28;20592;-76
2022/05/26 23:34:23;;;;;;;1.73;1.43;;;18.40;31.00;;;;;;10425994;28;20247;-74
2022/05/26 23:39:26;;;;;;;1.53;1.43;;;18.40;31.60;;;;;;10429572;28;20232;-75
2022/05/26 23:44:30;;;;;;;2.30;1.67;;;18.30;31.20;;;;;;10435679;28;20242;-74
2022/05/26 23:49:34;;;;;;;2.00;1.30;;;18.20;31.40;;;;;;10425990;28;20710;-75
2022/05/26 23:54:37;;;;;;;1.40;1.30;;;18.10;31.60;;;;;;10438949;28;20225;-75
2022/05/26 23:59:41;;;;;;;1.50;1.40;;;18.00;31.20;;;;;;10435981;28;20225;-74
